Camacinhos — CUDM8 — position and weather

sailwx.info

Track history (hours):
 
Tides and Currents Weather Stations Pressure Air Temp Water Temp Dewpoint Dewpoint Depression Visibility Wind Speed Wind Dir Waves Ship Positions

Camacinhos

Last reported at 2017-Nov-07 11:24 UTC. Time now 2017-Nov-25 04:09 UTC.
Position N 41°11' W 008°42'.
Warning: this ship's position is 17 days out of date.

Length 22 m.

Type: Fishing. MMSI: 263411780.

Date/timePositionNaut miles runAvg speedWind from/ knotsBaromVisibWave heightAir tempDewpointWater temp
2017-Nov-07 11:24N 41°11' W 008°42'0 0.0
2017-Nov-07 11:00N 41°11' W 008°42'0 0.0
2017-Nov-07 10:30N 41°11' W 008°42'0 0.0
2017-Nov-07 10:00N 41°11' W 008°42'0 0.0
2017-Nov-07 09:30N 41°11' W 008°42'0 0.0
2017-Nov-07 09:00N 41°11' W 008°42'0 0.0
2017-Nov-07 08:30N 41°11' W 008°42'0 0.0
2017-Nov-07 08:00N 41°11' W 008°42'0 0.0
2017-Nov-07 07:30N 41°11' W 008°42'0 0.0
2017-Nov-07 07:00N 41°11' W 008°42'0 0.0
2017-Nov-07 06:30N 41°11' W 008°42'1 1.2
2017-Nov-07 06:00N 41°10' W 008°42'6 0.9
2017-Nov-06 23:31N 41°04' W 008°42'0 8.4
2017-Nov-06 23:29N 41°05' W 008°42'4 8.5
2017-Nov-06 23:00N 41°09' W 008°42'2 4.3
2017-Nov-06 22:30N 41°11' W 008°42'5 0.2
2017-Nov-06 00:21N 41°06' W 008°42'310.0
2017-Nov-06 00:00N 41°09' W 008°42'2 3.2
2017-Nov-05 23:30N 41°11' W 008°42'0 0.0
2017-Nov-05 23:00N 41°11' W 008°42'  
2017-Nov-03 08:46N 41°11' W 008°42'0 0.0
2017-Nov-03 08:30N 41°11' W 008°42'0 0.0
2017-Nov-03 08:00N 41°11' W 008°42'0 0.0
2017-Nov-03 07:31N 41°11' W 008°42'0 0.0
2017-Nov-03 07:01N 41°11' W 008°42'0 0.0
2017-Nov-03 06:31N 41°11' W 008°42'0 0.0
2017-Nov-03 06:01N 41°11' W 008°42'4 8.5
2017-Nov-03 05:31N 41°07' W 008°44'1 0.2
2017-Nov-02 23:12N 41°06' W 008°43'2 9.2
2017-Nov-02 23:00N 41°08' W 008°43'3 0.5
2017-Nov-02 15:31N 41°11' W 008°42'0 0.0
2017-Nov-02 15:30N 41°11' W 008°42'0 0.0
2017-Nov-02 15:00N 41°11' W 008°42'0 0.0
2017-Nov-02 14:31N 41°11' W 008°42'0 0.0
2017-Nov-02 14:01N 41°11' W 008°42'0 0.0
2017-Nov-02 13:31N 41°11' W 008°42'0 0.0
2017-Nov-02 13:01N 41°11' W 008°42'0 0.0
2017-Nov-02 12:30N 41°11' W 008°42'0 0.0
2017-Nov-02 12:01N 41°11' W 008°42'0 0.0
2017-Nov-02 11:31N 41°11' W 008°42'0 0.0
2017-Nov-02 11:00N 41°11' W 008°42'0 0.0
2017-Nov-02 10:31N 41°11' W 008°42'1 2.8
2017-Nov-02 10:01N 41°10' W 008°42'4 0.4
2017-Nov-01 23:25N 41°06' W 008°42'4 9.7
2017-Nov-01 23:01N 41°10' W 008°42'1 0.0
2017-Oct-31 13:18N 41°11' W 008°42'0 0.2
2017-Oct-31 13:01N 41°11' W 008°42'0 0.2
2017-Oct-31 12:31N 41°11' W 008°42'0 0.0
2017-Oct-31 12:00N 41°11' W 008°42'0 0.0
2017-Oct-31 11:30N 41°11' W 008°42'0 0.0
2017-Oct-31 11:00N 41°11' W 008°42'0 0.0
2017-Oct-31 10:30N 41°11' W 008°42'0 0.0
2017-Oct-31 10:01N 41°11' W 008°42'0 0.0
2017-Oct-31 09:30N 41°11' W 008°42'0 0.0
2017-Oct-31 09:00N 41°11' W 008°42'0 0.0
2017-Oct-31 08:30N 41°11' W 008°42'0 0.0
2017-Oct-31 08:00N 41°11' W 008°42'0 0.0
2017-Oct-31 07:30N 41°11' W 008°42'0 0.0
2017-Oct-31 07:01N 41°11' W 008°42'0 0.0
2017-Oct-31 06:30N 41°11' W 008°42'3 5.3
2017-Oct-31 06:00N 41°08' W 008°42'3 0.4
2017-Oct-30 23:29N 41°05' W 008°42'4 9.3
2017-Oct-30 23:00N 41°10' W 008°42'1 0.1
2017-Oct-30 11:49N 41°11' W 008°42'1 3.7
2017-Oct-30 11:31N 41°10' W 008°42'1 0.1
2017-Oct-29 23:13N 41°09' W 008°42'2 9.6
2017-Oct-29 23:00N 41°11' W 008°42'0 0.8
2017-Oct-29 22:31N 41°11' W 008°42'  
Track history (hours):
 
Tides and Currents Weather Stations Pressure Air Temp Water Temp Dewpoint Dewpoint Depression Visibility Wind Speed Wind Dir Waves Ship Positions

Camacinhos

Last reported at 2017-Nov-07 11:24 UTC. Time now 2017-Nov-25 04:09 UTC.
Position N 41°11' W 008°42'.
Warning: this ship's position is 17 days out of date.

Length 22 m.

Type: Fishing. MMSI: 263411780.

Date/timePositionNaut miles runAvg speedWind from/ knotsBaromVisibWave heightAir tempDewpointWater temp
2017-Nov-07 11:24N 41°11' W 008°42'0 0.0
2017-Nov-07 11:00N 41°11' W 008°42'0 0.0
2017-Nov-07 10:30N 41°11' W 008°42'0 0.0
2017-Nov-07 10:00N 41°11' W 008°42'0 0.0
2017-Nov-07 09:30N 41°11' W 008°42'0 0.0
2017-Nov-07 09:00N 41°11' W 008°42'0 0.0
2017-Nov-07 08:30N 41°11' W 008°42'0 0.0
2017-Nov-07 08:00N 41°11' W 008°42'0 0.0
2017-Nov-07 07:30N 41°11' W 008°42'0 0.0
2017-Nov-07 07:00N 41°11' W 008°42'0 0.0
2017-Nov-07 06:30N 41°11' W 008°42'1 1.2
2017-Nov-07 06:00N 41°10' W 008°42'6 0.9
2017-Nov-06 23:31N 41°04' W 008°42'0 8.4
2017-Nov-06 23:29N 41°05' W 008°42'4 8.5
2017-Nov-06 23:00N 41°09' W 008°42'2 4.3
2017-Nov-06 22:30N 41°11' W 008°42'5 0.2
2017-Nov-06 00:21N 41°06' W 008°42'310.0
2017-Nov-06 00:00N 41°09' W 008°42'2 3.2
2017-Nov-05 23:30N 41°11' W 008°42'0 0.0
2017-Nov-05 23:00N 41°11' W 008°42'  
2017-Nov-03 08:46N 41°11' W 008°42'0 0.0
2017-Nov-03 08:30N 41°11' W 008°42'0 0.0
2017-Nov-03 08:00N 41°11' W 008°42'0 0.0
2017-Nov-03 07:31N 41°11' W 008°42'0 0.0
2017-Nov-03 07:01N 41°11' W 008°42'0 0.0
2017-Nov-03 06:31N 41°11' W 008°42'0 0.0
2017-Nov-03 06:01N 41°11' W 008°42'4 8.5
2017-Nov-03 05:31N 41°07' W 008°44'1 0.2
2017-Nov-02 23:12N 41°06' W 008°43'2 9.2
2017-Nov-02 23:00N 41°08' W 008°43'3 0.5
2017-Nov-02 15:31N 41°11' W 008°42'0 0.0
2017-Nov-02 15:30N 41°11' W 008°42'0 0.0
2017-Nov-02 15:00N 41°11' W 008°42'0 0.0
2017-Nov-02 14:31N 41°11' W 008°42'0 0.0
2017-Nov-02 14:01N 41°11' W 008°42'0 0.0
2017-Nov-02 13:31N 41°11' W 008°42'0 0.0
2017-Nov-02 13:01N 41°11' W 008°42'0 0.0
2017-Nov-02 12:30N 41°11' W 008°42'0 0.0
2017-Nov-02 12:01N 41°11' W 008°42'0 0.0
2017-Nov-02 11:31N 41°11' W 008°42'0 0.0
2017-Nov-02 11:00N 41°11' W 008°42'0 0.0
2017-Nov-02 10:31N 41°11' W 008°42'1 2.8
2017-Nov-02 10:01N 41°10' W 008°42'4 0.4
2017-Nov-01 23:25N 41°06' W 008°42'4 9.7
2017-Nov-01 23:01N 41°10' W 008°42'1 0.0
2017-Oct-31 13:18N 41°11' W 008°42'0 0.2
2017-Oct-31 13:01N 41°11' W 008°42'0 0.2
2017-Oct-31 12:31N 41°11' W 008°42'0 0.0
2017-Oct-31 12:00N 41°11' W 008°42'0 0.0
2017-Oct-31 11:30N 41°11' W 008°42'0 0.0
2017-Oct-31 11:00N 41°11' W 008°42'0 0.0
2017-Oct-31 10:30N 41°11' W 008°42'0 0.0
2017-Oct-31 10:01N 41°11' W 008°42'0 0.0
2017-Oct-31 09:30N 41°11' W 008°42'0 0.0
2017-Oct-31 09:00N 41°11' W 008°42'0 0.0
2017-Oct-31 08:30N 41°11' W 008°42'0 0.0
2017-Oct-31 08:00N 41°11' W 008°42'0 0.0
2017-Oct-31 07:30N 41°11' W 008°42'0 0.0
2017-Oct-31 07:01N 41°11' W 008°42'0 0.0
2017-Oct-31 06:30N 41°11' W 008°42'3 5.3
2017-Oct-31 06:00N 41°08' W 008°42'3 0.4
2017-Oct-30 23:29N 41°05' W 008°42'4 9.3
2017-Oct-30 23:00N 41°10' W 008°42'1 0.1
2017-Oct-30 11:49N 41°11' W 008°42'1 3.7
2017-Oct-30 11:31N 41°10' W 008°42'1 0.1
2017-Oct-29 23:13N 41°09' W 008°42'2 9.6
2017-Oct-29 23:00N 41°11' W 008°42'0 0.8
2017-Oct-29 22:31N 41°11' W 008°42'  

Dump ship's entire track history